sensor_id;sensor_type;location;lat;lon;timestamp;P1;durP1;ratioP1;P2;durP2;ratioP2
71104;SDS011;58760;48.716;8.962;2024-03-02T00:02:12;11.27;;;6.05;;
71104;SDS011;58760;48.716;8.962;2024-03-02T00:04:38;10.40;;;6.10;;
71104;SDS011;58760;48.716;8.962;2024-03-02T00:07:04;11.70;;;6.60;;
71104;SDS011;58760;48.716;8.962;2024-03-02T00:09:29;12.43;;;6.38;;
71104;SDS011;58760;48.716;8.962;2024-03-02T00:11:55;12.40;;;7.05;;
71104;SDS011;58760;48.716;8.962;2024-03-02T00:14:21;14.63;;;7.13;;
71104;SDS011;58760;48.716;8.962;2024-03-02T00:16:49;13.70;;;7.47;;
71104;SDS011;58760;48.716;8.962;2024-03-02T00:19:16;13.63;;;7.38;;
71104;SDS011;58760;48.716;8.962;2024-03-02T00:21:41;16.20;;;7.88;;
71104;SDS011;58760;48.716;8.962;2024-03-02T00:24:12;13.93;;;8.10;;
71104;SDS011;58760;48.716;8.962;2024-03-02T00:26:45;16.10;;;8.02;;
71104;SDS011;58760;48.716;8.962;2024-03-02T00:29:11;16.77;;;8.13;;
71104;SDS011;58760;48.716;8.962;2024-03-02T00:31:41;14.80;;;7.38;;
71104;SDS011;58760;48.716;8.962;2024-03-02T00:34:07;14.98;;;8.60;;
71104;SDS011;58760;48.716;8.962;2024-03-02T00:36:32;15.40;;;8.48;;
71104;SDS011;58760;48.716;8.962;2024-03-02T00:38:58;16.40;;;8.63;;
71104;SDS011;58760;48.716;8.962;2024-03-02T00:41:25;16.55;;;8.23;;
71104;SDS011;58760;48.716;8.962;2024-03-02T00:44:02;15.45;;;8.13;;
71104;SDS011;58760;48.716;8.962;2024-03-02T00:49:27;15.48;;;8.45;;
71104;SDS011;58760;48.716;8.962;2024-03-02T00:51:53;15.38;;;7.53;;
71104;SDS011;58760;48.716;8.962;2024-03-02T00:54:20;14.68;;;7.88;;
71104;SDS011;58760;48.716;8.962;2024-03-02T00:56:48;16.40;;;8.48;;
71104;SDS011;58760;48.716;8.962;2024-03-02T00:59:14;18.10;;;7.85;;
71104;SDS011;58760;48.716;8.962;2024-03-02T01:01:40;17.80;;;8.32;;
71104;SDS011;58760;48.716;8.962;2024-03-02T01:04:07;16.25;;;8.50;;
71104;SDS011;58760;48.716;8.962;2024-03-02T01:06:33;14.90;;;8.13;;
71104;SDS011;58760;48.716;8.962;2024-03-02T01:08:59;17.67;;;8.43;;
71104;SDS011;58760;48.716;8.962;2024-03-02T01:11:24;16.17;;;8.73;;
71104;SDS011;58760;48.716;8.962;2024-03-02T01:13:49;16.30;;;8.90;;
71104;SDS011;58760;48.716;8.962;2024-03-02T01:16:15;16.73;;;8.93;;
71104;SDS011;58760;48.716;8.962;2024-03-02T01:18:41;16.27;;;8.93;;
71104;SDS011;58760;48.716;8.962;2024-03-02T01:21:07;16.98;;;8.98;;
71104;SDS011;58760;48.716;8.962;2024-03-02T01:23:33;17.10;;;9.30;;
71104;SDS011;58760;48.716;8.962;2024-03-02T01:25:58;18.88;;;9.98;;
71104;SDS011;58760;48.716;8.962;2024-03-02T01:28:24;18.17;;;9.85;;
71104;SDS011;58760;48.716;8.962;2024-03-02T01:30:49;17.33;;;9.15;;
71104;SDS011;58760;48.716;8.962;2024-03-02T01:33:16;16.95;;;9.15;;
71104;SDS011;58760;48.716;8.962;2024-03-02T01:35:43;16.98;;;9.13;;
71104;SDS011;58760;48.716;8.962;2024-03-02T01:38:09;17.98;;;9.13;;
71104;SDS011;58760;48.716;8.962;2024-03-02T01:40:34;19.15;;;10.07;;
71104;SDS011;58760;48.716;8.962;2024-03-02T01:43:01;17.95;;;9.77;;
71104;SDS011;58760;48.716;8.962;2024-03-02T01:45:27;16.77;;;9.32;;
71104;SDS011;58760;48.716;8.962;2024-03-02T01:47:53;19.02;;;9.45;;
71104;SDS011;58760;48.716;8.962;2024-03-02T01:50:29;18.52;;;10.07;;
71104;SDS011;58760;48.716;8.962;2024-03-02T01:52:57;18.83;;;9.80;;
71104;SDS011;58760;48.716;8.962;2024-03-02T01:55:23;17.70;;;9.30;;
71104;SDS011;58760;48.716;8.962;2024-03-02T01:57:50;16.30;;;9.40;;
71104;SDS011;58760;48.716;8.962;2024-03-02T02:00:18;18.25;;;9.85;;
71104;SDS011;58760;48.716;8.962;2024-03-02T02:02:45;17.98;;;10.05;;
71104;SDS011;58760;48.716;8.962;2024-03-02T02:05:11;19.73;;;10.30;;
71104;SDS011;58760;48.716;8.962;2024-03-02T02:07:38;17.42;;;9.82;;
71104;SDS011;58760;48.716;8.962;2024-03-02T02:10:03;21.13;;;11.50;;
71104;SDS011;58760;48.716;8.962;2024-03-02T02:12:29;18.55;;;10.70;;
71104;SDS011;58760;48.716;8.962;2024-03-02T02:14:55;19.85;;;9.93;;
71104;SDS011;58760;48.716;8.962;2024-03-02T02:17:20;18.23;;;10.32;;
71104;SDS011;58760;48.716;8.962;2024-03-02T02:19:46;17.25;;;9.82;;
71104;SDS011;58760;48.716;8.962;2024-03-02T02:22:11;18.27;;;9.68;;
71104;SDS011;58760;48.716;8.962;2024-03-02T02:24:40;19.38;;;10.00;;
71104;SDS011;58760;48.716;8.962;2024-03-02T02:27:09;18.23;;;9.40;;
71104;SDS011;58760;48.716;8.962;2024-03-02T02:29:40;16.58;;;9.25;;
71104;SDS011;58760;48.716;8.962;2024-03-02T02:32:05;17.10;;;9.80;;
71104;SDS011;58760;48.716;8.962;2024-03-02T02:34:31;21.65;;;9.70;;
71104;SDS011;58760;48.716;8.962;2024-03-02T02:36:56;17.13;;;9.63;;
71104;SDS011;58760;48.716;8.962;2024-03-02T02:39:22;16.98;;;10.02;;
71104;SDS011;58760;48.716;8.962;2024-03-02T02:41:48;18.02;;;9.93;;
71104;SDS011;58760;48.716;8.962;2024-03-02T02:44:14;17.23;;;9.65;;
71104;SDS011;58760;48.716;8.962;2024-03-02T02:46:40;18.67;;;10.30;;
71104;SDS011;58760;48.716;8.962;2024-03-02T02:49:06;20.90;;;10.90;;
71104;SDS011;58760;48.716;8.962;2024-03-02T02:51:32;21.15;;;11.68;;
71104;SDS011;58760;48.716;8.962;2024-03-02T02:53:57;20.50;;;10.80;;
71104;SDS011;58760;48.716;8.962;2024-03-02T02:56:23;19.98;;;11.63;;
71104;SDS011;58760;48.716;8.962;2024-03-02T02:58:49;18.67;;;11.55;;
71104;SDS011;58760;48.716;8.962;2024-03-02T03:01:15;21.48;;;11.30;;
71104;SDS011;58760;48.716;8.962;2024-03-02T03:03:43;21.92;;;11.82;;
71104;SDS011;58760;48.716;8.962;2024-03-02T03:06:09;23.08;;;12.57;;
71104;SDS011;58760;48.716;8.962;2024-03-02T03:08:34;23.20;;;12.60;;
71104;SDS011;58760;48.716;8.962;2024-03-02T03:11:00;24.85;;;12.48;;
71104;SDS011;58760;48.716;8.962;2024-03-02T03:13:26;25.08;;;12.05;;
71104;SDS011;58760;48.716;8.962;2024-03-02T03:15:52;22.70;;;12.93;;
71104;SDS011;58760;48.716;8.962;2024-03-02T03:18:17;21.25;;;12.23;;
71104;SDS011;58760;48.716;8.962;2024-03-02T03:20:43;20.63;;;10.80;;
71104;SDS011;58760;48.716;8.962;2024-03-02T03:23:09;19.17;;;11.07;;
71104;SDS011;58760;48.716;8.962;2024-03-02T03:25:34;21.55;;;10.68;;
71104;SDS011;58760;48.716;8.962;2024-03-02T03:28:00;22.35;;;11.48;;
71104;SDS011;58760;48.716;8.962;2024-03-02T03:30:26;21.95;;;11.38;;
71104;SDS011;58760;48.716;8.962;2024-03-02T03:32:52;20.52;;;11.07;;
71104;SDS011;58760;48.716;8.962;2024-03-02T03:35:17;20.05;;;10.25;;
71104;SDS011;58760;48.716;8.962;2024-03-02T03:37:43;19.50;;;10.63;;
71104;SDS011;58760;48.716;8.962;2024-03-02T03:40:09;21.45;;;11.90;;
71104;SDS011;58760;48.716;8.962;2024-03-02T03:42:36;20.85;;;10.63;;
71104;SDS011;58760;48.716;8.962;2024-03-02T03:45:02;19.10;;;10.50;;
71104;SDS011;58760;48.716;8.962;2024-03-02T03:47:28;17.92;;;10.38;;
71104;SDS011;58760;48.716;8.962;2024-03-02T03:49:54;20.67;;;10.93;;
71104;SDS011;58760;48.716;8.962;2024-03-02T03:52:19;18.63;;;10.55;;
71104;SDS011;58760;48.716;8.962;2024-03-02T03:54:46;19.02;;;10.98;;
71104;SDS011;58760;48.716;8.962;2024-03-02T03:57:12;19.70;;;10.70;;
71104;SDS011;58760;48.716;8.962;2024-03-02T03:59:37;19.58;;;11.40;;
71104;SDS011;58760;48.716;8.962;2024-03-02T04:02:03;23.05;;;11.60;;
71104;SDS011;58760;48.716;8.962;2024-03-02T04:04:29;21.52;;;11.77;;
71104;SDS011;58760;48.716;8.962;2024-03-02T04:06:55;27.52;;;12.80;;
71104;SDS011;58760;48.716;8.962;2024-03-02T04:09:20;23.92;;;12.85;;
71104;SDS011;58760;48.716;8.962;2024-03-02T04:11:46;19.67;;;11.82;;
71104;SDS011;58760;48.716;8.962;2024-03-02T04:14:11;20.45;;;11.73;;
71104;SDS011;58760;48.716;8.962;2024-03-02T04:16:37;22.40;;;11.20;;
71104;SDS011;58760;48.716;8.962;2024-03-02T04:19:04;22.05;;;11.05;;
71104;SDS011;58760;48.716;8.962;2024-03-02T04:21:30;20.27;;;10.50;;
71104;SDS011;58760;48.716;8.962;2024-03-02T04:23:55;19.35;;;10.73;;
71104;SDS011;58760;48.716;8.962;2024-03-02T04:26:27;19.67;;;11.32;;
71104;SDS011;58760;48.716;8.962;2024-03-02T04:28:52;21.45;;;11.35;;
71104;SDS011;58760;48.716;8.962;2024-03-02T04:31:19;21.08;;;11.60;;
71104;SDS011;58760;48.716;8.962;2024-03-02T04:33:45;24.15;;;11.32;;
71104;SDS011;58760;48.716;8.962;2024-03-02T04:36:11;20.80;;;10.88;;
71104;SDS011;58760;48.716;8.962;2024-03-02T04:38:37;23.77;;;12.30;;
71104;SDS011;58760;48.716;8.962;2024-03-02T04:41:04;25.85;;;12.13;;
71104;SDS011;58760;48.716;8.962;2024-03-02T04:43:34;23.67;;;12.30;;
71104;SDS011;58760;48.716;8.962;2024-03-02T04:46:00;22.83;;;11.93;;
71104;SDS011;58760;48.716;8.962;2024-03-02T04:48:26;21.17;;;11.10;;
71104;SDS011;58760;48.716;8.962;2024-03-02T04:50:51;20.42;;;12.05;;
71104;SDS011;58760;48.716;8.962;2024-03-02T04:53:17;20.40;;;12.07;;
71104;SDS011;58760;48.716;8.962;2024-03-02T04:55:43;16.92;;;10.35;;
71104;SDS011;58760;48.716;8.962;2024-03-02T04:58:08;22.17;;;11.35;;
71104;SDS011;58760;48.716;8.962;2024-03-02T05:00:34;22.35;;;10.88;;
71104;SDS011;58760;48.716;8.962;2024-03-02T05:03:01;19.63;;;11.23;;
71104;SDS011;58760;48.716;8.962;2024-03-02T05:05:27;21.75;;;11.70;;
71104;SDS011;58760;48.716;8.962;2024-03-02T05:07:52;19.08;;;11.00;;
71104;SDS011;58760;48.716;8.962;2024-03-02T05:10:18;19.50;;;10.90;;
71104;SDS011;58760;48.716;8.962;2024-03-02T05:12:44;23.10;;;11.75;;
71104;SDS011;58760;48.716;8.962;2024-03-02T05:15:10;26.95;;;11.52;;
71104;SDS011;58760;48.716;8.962;2024-03-02T05:17:37;20.85;;;11.68;;
71104;SDS011;58760;48.716;8.962;2024-03-02T05:20:04;20.83;;;11.07;;
71104;SDS011;58760;48.716;8.962;2024-03-02T05:22:31;18.67;;;11.15;;
71104;SDS011;58760;48.716;8.962;2024-03-02T05:24:56;22.20;;;11.55;;
71104;SDS011;58760;48.716;8.962;2024-03-02T05:27:22;22.65;;;12.18;;
71104;SDS011;58760;48.716;8.962;2024-03-02T05:29:47;22.58;;;11.98;;
71104;SDS011;58760;48.716;8.962;2024-03-02T05:32:13;23.23;;;11.73;;
71104;SDS011;58760;48.716;8.962;2024-03-02T05:34:38;21.33;;;11.98;;
71104;SDS011;58760;48.716;8.962;2024-03-02T05:37:04;21.20;;;11.75;;
71104;SDS011;58760;48.716;8.962;2024-03-02T05:39:29;20.17;;;11.15;;
71104;SDS011;58760;48.716;8.962;2024-03-02T05:41:58;19.70;;;11.40;;
71104;SDS011;58760;48.716;8.962;2024-03-02T05:44:23;22.10;;;10.80;;
71104;SDS011;58760;48.716;8.962;2024-03-02T05:46:48;22.27;;;11.75;;
71104;SDS011;58760;48.716;8.962;2024-03-02T05:49:14;19.98;;;11.25;;
71104;SDS011;58760;48.716;8.962;2024-03-02T05:51:40;19.88;;;11.13;;
71104;SDS011;58760;48.716;8.962;2024-03-02T05:54:05;21.20;;;11.35;;
71104;SDS011;58760;48.716;8.962;2024-03-02T05:56:31;20.00;;;11.70;;
71104;SDS011;58760;48.716;8.962;2024-03-02T05:58:57;22.63;;;12.48;;
71104;SDS011;58760;48.716;8.962;2024-03-02T06:01:45;21.77;;;11.95;;
71104;SDS011;58760;48.716;8.962;2024-03-02T06:04:17;22.30;;;12.50;;
71104;SDS011;58760;48.716;8.962;2024-03-02T06:06:43;21.25;;;11.63;;
71104;SDS011;58760;48.716;8.962;2024-03-02T06:09:09;21.75;;;11.40;;
71104;SDS011;58760;48.716;8.962;2024-03-02T06:11:38;19.40;;;11.68;;
71104;SDS011;58760;48.716;8.962;2024-03-02T06:14:06;23.40;;;12.27;;
71104;SDS011;58760;48.716;8.962;2024-03-02T06:16:33;22.25;;;11.82;;
71104;SDS011;58760;48.716;8.962;2024-03-02T06:18:59;22.65;;;12.75;;
71104;SDS011;58760;48.716;8.962;2024-03-02T06:21:25;22.73;;;12.63;;
71104;SDS011;58760;48.716;8.962;2024-03-02T06:23:50;23.30;;;12.43;;
71104;SDS011;58760;48.716;8.962;2024-03-02T06:26:16;22.23;;;12.30;;
71104;SDS011;58760;48.716;8.962;2024-03-02T06:28:42;25.13;;;13.20;;
71104;SDS011;58760;48.716;8.962;2024-03-02T06:31:08;22.40;;;12.85;;
71104;SDS011;58760;48.716;8.962;2024-03-02T06:33:33;24.17;;;13.10;;
71104;SDS011;58760;48.716;8.962;2024-03-02T06:35:59;25.13;;;14.07;;
71104;SDS011;58760;48.716;8.962;2024-03-02T06:38:24;27.50;;;14.38;;
71104;SDS011;58760;48.716;8.962;2024-03-02T06:40:50;24.80;;;13.30;;
71104;SDS011;58760;48.716;8.962;2024-03-02T06:43:15;24.75;;;13.23;;
71104;SDS011;58760;48.716;8.962;2024-03-02T06:45:41;27.55;;;14.23;;
71104;SDS011;58760;48.716;8.962;2024-03-02T06:48:06;24.30;;;13.13;;
71104;SDS011;58760;48.716;8.962;2024-03-02T06:50:32;25.60;;;13.05;;
71104;SDS011;58760;48.716;8.962;2024-03-02T06:52:57;22.95;;;12.30;;
71104;SDS011;58760;48.716;8.962;2024-03-02T06:55:23;22.52;;;11.90;;
71104;SDS011;58760;48.716;8.962;2024-03-02T06:57:51;23.08;;;12.35;;
71104;SDS011;58760;48.716;8.962;2024-03-02T07:00:17;24.08;;;13.35;;
71104;SDS011;58760;48.716;8.962;2024-03-02T07:02:45;24.30;;;13.43;;
71104;SDS011;58760;48.716;8.962;2024-03-02T07:05:11;27.02;;;13.48;;
71104;SDS011;58760;48.716;8.962;2024-03-02T07:07:37;23.88;;;12.77;;
71104;SDS011;58760;48.716;8.962;2024-03-02T07:10:03;22.98;;;12.63;;
71104;SDS011;58760;48.716;8.962;2024-03-02T07:12:29;24.38;;;12.85;;
71104;SDS011;58760;48.716;8.962;2024-03-02T07:14:56;24.00;;;12.80;;
71104;SDS011;58760;48.716;8.962;2024-03-02T07:17:27;22.10;;;11.77;;
71104;SDS011;58760;48.716;8.962;2024-03-02T07:19:53;22.23;;;11.88;;
71104;SDS011;58760;48.716;8.962;2024-03-02T07:22:19;18.88;;;11.55;;
71104;SDS011;58760;48.716;8.962;2024-03-02T07:24:45;25.33;;;12.27;;
71104;SDS011;58760;48.716;8.962;2024-03-02T07:27:13;23.63;;;12.88;;
71104;SDS011;58760;48.716;8.962;2024-03-02T07:29:39;21.45;;;11.93;;
71104;SDS011;58760;48.716;8.962;2024-03-02T07:32:05;22.38;;;11.82;;
71104;SDS011;58760;48.716;8.962;2024-03-02T07:34:32;20.98;;;11.93;;
71104;SDS011;58760;48.716;8.962;2024-03-02T07:36:57;23.38;;;12.20;;
71104;SDS011;58760;48.716;8.962;2024-03-02T07:39:23;24.02;;;13.07;;
71104;SDS011;58760;48.716;8.962;2024-03-02T07:41:49;26.50;;;13.85;;
71104;SDS011;58760;48.716;8.962;2024-03-02T07:44:15;24.75;;;12.57;;
71104;SDS011;58760;48.716;8.962;2024-03-02T07:46:41;21.15;;;11.70;;
71104;SDS011;58760;48.716;8.962;2024-03-02T07:49:07;24.10;;;12.80;;
71104;SDS011;58760;48.716;8.962;2024-03-02T07:51:33;23.38;;;12.90;;
71104;SDS011;58760;48.716;8.962;2024-03-02T07:53:58;22.83;;;12.38;;
71104;SDS011;58760;48.716;8.962;2024-03-02T07:56:24;24.50;;;13.18;;
71104;SDS011;58760;48.716;8.962;2024-03-02T07:58:50;24.98;;;13.55;;
71104;SDS011;58760;48.716;8.962;2024-03-02T08:01:15;24.48;;;12.18;;
71104;SDS011;58760;48.716;8.962;2024-03-02T08:03:42;22.48;;;12.10;;
71104;SDS011;58760;48.716;8.962;2024-03-02T08:06:15;22.23;;;11.68;;
71104;SDS011;58760;48.716;8.962;2024-03-02T08:08:48;22.27;;;11.93;;
71104;SDS011;58760;48.716;8.962;2024-03-02T08:11:14;23.67;;;12.52;;
71104;SDS011;58760;48.716;8.962;2024-03-02T08:13:39;21.73;;;12.48;;
71104;SDS011;58760;48.716;8.962;2024-03-02T08:16:05;23.15;;;12.27;;
71104;SDS011;58760;48.716;8.962;2024-03-02T08:18:34;19.75;;;11.07;;
71104;SDS011;58760;48.716;8.962;2024-03-02T08:21:00;22.25;;;11.73;;
71104;SDS011;58760;48.716;8.962;2024-03-02T08:23:25;22.25;;;12.02;;
71104;SDS011;58760;48.716;8.962;2024-03-02T08:25:51;22.05;;;12.00;;
71104;SDS011;58760;48.716;8.962;2024-03-02T08:28:17;22.38;;;11.82;;
71104;SDS011;58760;48.716;8.962;2024-03-02T08:30:42;24.92;;;11.57;;
71104;SDS011;58760;48.716;8.962;2024-03-02T08:33:08;19.58;;;11.18;;
71104;SDS011;58760;48.716;8.962;2024-03-02T08:35:33;19.55;;;10.45;;
71104;SDS011;58760;48.716;8.962;2024-03-02T08:38:04;18.48;;;10.80;;
71104;SDS011;58760;48.716;8.962;2024-03-02T08:40:29;20.25;;;11.63;;
71104;SDS011;58760;48.716;8.962;2024-03-02T08:42:55;20.17;;;10.65;;
71104;SDS011;58760;48.716;8.962;2024-03-02T08:45:21;18.00;;;10.73;;
71104;SDS011;58760;48.716;8.962;2024-03-02T08:47:46;16.60;;;9.50;;
71104;SDS011;58760;48.716;8.962;2024-03-02T08:50:12;17.15;;;9.25;;
71104;SDS011;58760;48.716;8.962;2024-03-02T08:52:38;18.05;;;8.82;;
71104;SDS011;58760;48.716;8.962;2024-03-02T08:55:03;14.82;;;8.55;;
71104;SDS011;58760;48.716;8.962;2024-03-02T08:57:29;15.95;;;9.40;;
71104;SDS011;58760;48.716;8.962;2024-03-02T08:59:56;16.08;;;9.00;;
71104;SDS011;58760;48.716;8.962;2024-03-02T09:02:21;14.52;;;8.68;;
71104;SDS011;58760;48.716;8.962;2024-03-02T09:04:47;15.02;;;8.60;;
71104;SDS011;58760;48.716;8.962;2024-03-02T09:07:12;15.10;;;8.35;;
71104;SDS011;58760;48.716;8.962;2024-03-02T09:09:38;15.40;;;8.20;;
71104;SDS011;58760;48.716;8.962;2024-03-02T09:12:04;16.55;;;8.55;;
71104;SDS011;58760;48.716;8.962;2024-03-02T09:16:56;15.00;;;7.93;;
71104;SDS011;58760;48.716;8.962;2024-03-02T09:19:21;12.85;;;7.45;;
71104;SDS011;58760;48.716;8.962;2024-03-02T09:21:47;13.48;;;8.15;;
71104;SDS011;58760;48.716;8.962;2024-03-02T09:24:12;13.98;;;7.05;;
71104;SDS011;58760;48.716;8.962;2024-03-02T09:26:38;11.02;;;6.10;;
71104;SDS011;58760;48.716;8.962;2024-03-02T09:29:03;11.18;;;6.10;;
71104;SDS011;58760;48.716;8.962;2024-03-02T09:31:29;12.05;;;6.40;;
71104;SDS011;58760;48.716;8.962;2024-03-02T09:33:54;9.68;;;5.57;;
71104;SDS011;58760;48.716;8.962;2024-03-02T09:36:21;12.00;;;6.15;;
71104;SDS011;58760;48.716;8.962;2024-03-02T09:38:48;10.68;;;5.75;;
71104;SDS011;58760;48.716;8.962;2024-03-02T09:41:16;10.02;;;5.75;;
71104;SDS011;58760;48.716;8.962;2024-03-02T09:43:42;10.57;;;5.70;;
71104;SDS011;58760;48.716;8.962;2024-03-02T09:46:08;9.57;;;4.85;;
71104;SDS011;58760;48.716;8.962;2024-03-02T09:48:35;9.90;;;5.07;;
71104;SDS011;58760;48.716;8.962;2024-03-02T09:51:00;8.68;;;4.32;;
71104;SDS011;58760;48.716;8.962;2024-03-02T09:53:32;8.85;;;5.00;;
71104;SDS011;58760;48.716;8.962;2024-03-02T09:55:59;9.57;;;4.40;;
71104;SDS011;58760;48.716;8.962;2024-03-02T09:58:25;7.78;;;4.25;;
71104;SDS011;58760;48.716;8.962;2024-03-02T10:00:50;8.43;;;4.40;;
71104;SDS011;58760;48.716;8.962;2024-03-02T10:03:16;7.38;;;3.63;;
71104;SDS011;58760;48.716;8.962;2024-03-02T10:05:43;7.45;;;3.72;;
71104;SDS011;58760;48.716;8.962;2024-03-02T10:08:09;7.13;;;3.33;;
71104;SDS011;58760;48.716;8.962;2024-03-02T10:10:35;7.82;;;3.45;;
71104;SDS011;58760;48.716;8.962;2024-03-02T10:13:08;9.35;;;4.05;;
71104;SDS011;58760;48.716;8.962;2024-03-02T10:15:35;6.10;;;3.22;;
71104;SDS011;58760;48.716;8.962;2024-03-02T10:18:02;6.80;;;3.17;;
71104;SDS011;58760;48.716;8.962;2024-03-02T10:20:29;7.32;;;3.08;;
71104;SDS011;58760;48.716;8.962;2024-03-02T10:22:55;7.43;;;2.63;;
71104;SDS011;58760;48.716;8.962;2024-03-02T10:25:31;5.68;;;2.38;;
71104;SDS011;58760;48.716;8.962;2024-03-02T10:27:58;5.47;;;2.47;;
71104;SDS011;58760;48.716;8.962;2024-03-02T10:30:25;7.22;;;2.70;;
71104;SDS011;58760;48.716;8.962;2024-03-02T10:35:18;5.47;;;2.50;;
71104;SDS011;58760;48.716;8.962;2024-03-02T10:37:45;8.38;;;2.40;;
71104;SDS011;58760;48.716;8.962;2024-03-02T10:40:12;5.95;;;2.40;;
71104;SDS011;58760;48.716;8.962;2024-03-02T10:45:06;4.68;;;1.92;;
71104;SDS011;58760;48.716;8.962;2024-03-02T10:47:35;4.85;;;1.95;;
71104;SDS011;58760;48.716;8.962;2024-03-02T10:50:02;3.85;;;1.50;;
71104;SDS011;58760;48.716;8.962;2024-03-02T10:52:34;1.80;;;1.00;;
71104;SDS011;58760;48.716;8.962;2024-03-02T10:55:00;3.05;;;1.17;;
71104;SDS011;58760;48.716;8.962;2024-03-02T10:57:25;2.28;;;1.00;;
71104;SDS011;58760;48.716;8.962;2024-03-02T11:02:21;3.45;;;0.90;;
71104;SDS011;58760;48.716;8.962;2024-03-02T11:04:47;1.55;;;0.80;;
71104;SDS011;58760;48.716;8.962;2024-03-02T11:07:15;1.48;;;0.85;;
71104;SDS011;58760;48.716;8.962;2024-03-02T11:09:46;2.60;;;1.10;;
71104;SDS011;58760;48.716;8.962;2024-03-02T11:12:19;1.20;;;0.70;;
71104;SDS011;58760;48.716;8.962;2024-03-02T11:14:51;1.85;;;0.80;;
71104;SDS011;58760;48.716;8.962;2024-03-02T11:17:19;1.88;;;0.85;;
71104;SDS011;58760;48.716;8.962;2024-03-02T11:19:45;3.90;;;0.93;;
71104;SDS011;58760;48.716;8.962;2024-03-02T11:22:12;1.98;;;0.70;;
71104;SDS011;58760;48.716;8.962;2024-03-02T11:24:38;2.60;;;0.73;;
71104;SDS011;58760;48.716;8.962;2024-03-02T11:27:06;1.58;;;1.13;;
71104;SDS011;58760;48.716;8.962;2024-03-02T11:34:35;3.53;;;1.20;;
71104;SDS011;58760;48.716;8.962;2024-03-02T11:37:01;1.10;;;0.60;;
71104;SDS011;58760;48.716;8.962;2024-03-02T11:39:28;2.22;;;0.70;;
71104;SDS011;58760;48.716;8.962;2024-03-02T11:41:57;1.85;;;0.70;;
71104;SDS011;58760;48.716;8.962;2024-03-02T11:44:26;2.88;;;0.88;;
71104;SDS011;58760;48.716;8.962;2024-03-02T11:46:59;2.15;;;0.98;;
71104;SDS011;58760;48.716;8.962;2024-03-02T11:49:37;2.13;;;0.70;;
71104;SDS011;58760;48.716;8.962;2024-03-02T11:52:07;0.95;;;0.50;;
71104;SDS011;58760;48.716;8.962;2024-03-02T11:54:34;1.60;;;0.70;;
71104;SDS011;58760;48.716;8.962;2024-03-02T11:57:05;2.03;;;0.57;;
71104;SDS011;58760;48.716;8.962;2024-03-02T11:59:32;1.48;;;0.70;;
71104;SDS011;58760;48.716;8.962;2024-03-02T12:01:58;1.33;;;0.50;;
71104;SDS011;58760;48.716;8.962;2024-03-02T12:04:24;1.65;;;0.73;;
71104;SDS011;58760;48.716;8.962;2024-03-02T12:06:58;0.60;;;0.50;;
71104;SDS011;58760;48.716;8.962;2024-03-02T12:09:25;0.80;;;0.50;;
71104;SDS011;58760;48.716;8.962;2024-03-02T12:12:03;0.63;;;0.40;;
71104;SDS011;58760;48.716;8.962;2024-03-02T12:14:33;0.82;;;0.40;;
71104;SDS011;58760;48.716;8.962;2024-03-02T12:17:00;0.80;;;0.50;;
71104;SDS011;58760;48.716;8.962;2024-03-02T12:19:27;0.95;;;0.50;;
71104;SDS011;58760;48.716;8.962;2024-03-02T12:21:55;2.17;;;0.50;;
71104;SDS011;58760;48.716;8.962;2024-03-02T12:24:21;0.38;;;0.38;;
71104;SDS011;58760;48.716;8.962;2024-03-02T12:29:14;1.23;;;0.68;;
71104;SDS011;58760;48.716;8.962;2024-03-02T12:34:05;0.40;;;0.40;;
71104;SDS011;58760;48.716;8.962;2024-03-02T12:36:36;1.05;;;0.40;;
71104;SDS011;58760;48.716;8.962;2024-03-02T12:39:04;1.05;;;0.40;;
71104;SDS011;58760;48.716;8.962;2024-03-02T12:41:30;0.75;;;0.55;;
71104;SDS011;58760;48.716;8.962;2024-03-02T12:46:21;0.65;;;0.60;;
71104;SDS011;58760;48.716;8.962;2024-03-02T12:51:12;1.00;;;0.55;;
71104;SDS011;58760;48.716;8.962;2024-03-02T12:53:38;1.70;;;0.73;;
71104;SDS011;58760;48.716;8.962;2024-03-02T12:56:03;1.02;;;0.50;;
71104;SDS011;58760;48.716;8.962;2024-03-02T12:58:29;1.02;;;0.50;;
71104;SDS011;58760;48.716;8.962;2024-03-02T13:01:08;0.82;;;0.32;;
71104;SDS011;58760;48.716;8.962;2024-03-02T13:03:35;1.50;;;0.70;;
71104;SDS011;58760;48.716;8.962;2024-03-02T13:06:02;1.08;;;0.40;;
71104;SDS011;58760;48.716;8.962;2024-03-02T13:10:54;0.70;;;0.40;;
71104;SDS011;58760;48.716;8.962;2024-03-02T13:15:44;1.83;;;0.90;;
71104;SDS011;58760;48.716;8.962;2024-03-02T13:20:36;0.82;;;0.50;;
71104;SDS011;58760;48.716;8.962;2024-03-02T13:23:02;1.85;;;0.60;;
71104;SDS011;58760;48.716;8.962;2024-03-02T13:25:28;2.00;;;0.80;;
71104;SDS011;58760;48.716;8.962;2024-03-02T13:30:19;1.55;;;0.47;;
71104;SDS011;58760;48.716;8.962;2024-03-02T13:32:44;0.80;;;0.47;;
71104;SDS011;58760;48.716;8.962;2024-03-02T13:35:10;1.45;;;0.60;;
71104;SDS011;58760;48.716;8.962;2024-03-02T13:37:36;1.52;;;0.70;;
71104;SDS011;58760;48.716;8.962;2024-03-02T13:40:02;1.45;;;0.80;;
71104;SDS011;58760;48.716;8.962;2024-03-02T13:42:29;2.08;;;0.70;;
71104;SDS011;58760;48.716;8.962;2024-03-02T13:44:55;1.35;;;0.90;;
71104;SDS011;58760;48.716;8.962;2024-03-02T13:47:21;1.70;;;0.70;;
71104;SDS011;58760;48.716;8.962;2024-03-02T13:49:47;2.28;;;0.63;;
71104;SDS011;58760;48.716;8.962;2024-03-02T13:52:14;0.93;;;0.65;;
71104;SDS011;58760;48.716;8.962;2024-03-02T13:54:40;3.60;;;0.70;;
71104;SDS011;58760;48.716;8.962;2024-03-02T13:57:07;2.08;;;0.90;;
71104;SDS011;58760;48.716;8.962;2024-03-02T13:59:36;1.48;;;0.70;;
71104;SDS011;58760;48.716;8.962;2024-03-02T14:02:02;2.00;;;0.98;;
71104;SDS011;58760;48.716;8.962;2024-03-02T14:04:34;1.83;;;0.90;;
71104;SDS011;58760;48.716;8.962;2024-03-02T14:07:01;2.78;;;0.80;;
71104;SDS011;58760;48.716;8.962;2024-03-02T14:09:27;1.45;;;0.70;;
71104;SDS011;58760;48.716;8.962;2024-03-02T14:11:53;2.13;;;0.80;;
71104;SDS011;58760;48.716;8.962;2024-03-02T14:14:19;2.25;;;0.80;;
71104;SDS011;58760;48.716;8.962;2024-03-02T14:19:11;0.95;;;0.80;;
71104;SDS011;58760;48.716;8.962;2024-03-02T14:21:40;1.63;;;0.80;;
71104;SDS011;58760;48.716;8.962;2024-03-02T14:24:05;1.73;;;0.60;;
71104;SDS011;58760;48.716;8.962;2024-03-02T14:26:35;1.15;;;0.70;;
71104;SDS011;58760;48.716;8.962;2024-03-02T14:29:01;1.00;;;0.60;;
71104;SDS011;58760;48.716;8.962;2024-03-02T14:31:28;1.17;;;0.75;;
71104;SDS011;58760;48.716;8.962;2024-03-02T14:33:54;1.88;;;0.80;;
71104;SDS011;58760;48.716;8.962;2024-03-02T14:36:19;3.03;;;0.70;;
71104;SDS011;58760;48.716;8.962;2024-03-02T14:38:45;1.10;;;0.50;;
71104;SDS011;58760;48.716;8.962;2024-03-02T14:41:11;0.63;;;0.45;;
71104;SDS011;58760;48.716;8.962;2024-03-02T14:43:38;0.65;;;0.60;;
71104;SDS011;58760;48.716;8.962;2024-03-02T14:46:04;1.83;;;0.70;;
71104;SDS011;58760;48.716;8.962;2024-03-02T14:48:30;2.72;;;0.65;;
71104;SDS011;58760;48.716;8.962;2024-03-02T14:50:56;1.48;;;0.60;;
71104;SDS011;58760;48.716;8.962;2024-03-02T14:53:22;1.20;;;0.60;;
71104;SDS011;58760;48.716;8.962;2024-03-02T14:55:48;1.33;;;0.73;;
71104;SDS011;58760;48.716;8.962;2024-03-02T14:58:14;1.88;;;0.82;;
71104;SDS011;58760;48.716;8.962;2024-03-02T15:00:40;1.63;;;0.80;;
71104;SDS011;58760;48.716;8.962;2024-03-02T15:03:06;4.30;;;1.00;;
71104;SDS011;58760;48.716;8.962;2024-03-02T15:05:34;2.42;;;0.82;;
71104;SDS011;58760;48.716;8.962;2024-03-02T15:08:00;1.50;;;0.95;;
71104;SDS011;58760;48.716;8.962;2024-03-02T15:10:27;3.03;;;0.85;;